sensor_id;sensor_type;location;lat;lon;timestamp;pressure;altitude;pressure_sealevel;temperature;humidity
49813;BME280;35706;52.100;5.056;2023-04-06T00:00:23;101735.34;;;10.24;43.05
49813;BME280;35706;52.100;5.056;2023-04-06T00:01:23;101740.94;;;10.19;43.25
49813;BME280;35706;52.100;5.056;2023-04-06T00:02:24;101740.72;;;10.23;43.53
49813;BME280;35706;52.100;5.056;2023-04-06T00:03:24;101740.78;;;10.10;43.67
49813;BME280;35706;52.100;5.056;2023-04-06T00:04:25;101739.97;;;10.33;43.10
49813;BME280;35706;52.100;5.056;2023-04-06T00:05:25;101740.56;;;10.37;43.28
49813;BME280;35706;52.100;5.056;2023-04-06T00:06:27;101739.19;;;10.44;43.10
49813;BME280;35706;52.100;5.056;2023-04-06T00:07:28;101736.94;;;10.27;43.15
49813;BME280;35706;52.100;5.056;2023-04-06T00:08:29;101734.38;;;10.38;42.95
49813;BME280;35706;52.100;5.056;2023-04-06T00:09:30;101734.38;;;10.38;42.81
49813;BME280;35706;52.100;5.056;2023-04-06T00:10:30;101730.72;;;10.04;43.73
49813;BME280;35706;52.100;5.056;2023-04-06T00:11:31;101731.19;;;10.09;43.86
49813;BME280;35706;52.100;5.056;2023-04-06T00:12:31;101736.69;;;10.06;43.83
49813;BME280;35706;52.100;5.056;2023-04-06T00:13:31;101740.09;;;9.95;44.05
49813;BME280;35706;52.100;5.056;2023-04-06T00:14:32;101733.84;;;10.09;43.65
49813;BME280;35706;52.100;5.056;2023-04-06T00:15:33;101733.44;;;10.02;43.54
49813;BME280;35706;52.100;5.056;2023-04-06T00:16:33;101736.78;;;10.04;43.86
49813;BME280;35706;52.100;5.056;2023-04-06T00:17:33;101731.38;;;10.18;43.41
49813;BME280;35706;52.100;5.056;2023-04-06T00:18:34;101724.72;;;10.02;43.47
49813;BME280;35706;52.100;5.056;2023-04-06T00:19:34;101728.91;;;10.04;43.49
49813;BME280;35706;52.100;5.056;2023-04-06T00:20:35;101729.41;;;10.09;43.35
49813;BME280;35706;52.100;5.056;2023-04-06T00:21:35;101722.59;;;10.07;43.45
49813;BME280;35706;52.100;5.056;2023-04-06T00:22:35;101730.09;;;10.00;43.57
49813;BME280;35706;52.100;5.056;2023-04-06T00:23:36;101721.16;;;10.27;43.01
49813;BME280;35706;52.100;5.056;2023-04-06T00:24:36;101723.25;;;10.34;42.63
49813;BME280;35706;52.100;5.056;2023-04-06T00:25:37;101714.41;;;10.35;42.63
49813;BME280;35706;52.100;5.056;2023-04-06T00:26:37;101717.72;;;10.13;42.77
49813;BME280;35706;52.100;5.056;2023-04-06T00:27:38;101721.44;;;10.11;42.88
49813;BME280;35706;52.100;5.056;2023-04-06T00:28:38;101720.31;;;10.02;43.38
49813;BME280;35706;52.100;5.056;2023-04-06T00:29:39;101715.78;;;10.04;43.58
49813;BME280;35706;52.100;5.056;2023-04-06T00:30:40;101711.03;;;10.09;43.42
49813;BME280;35706;52.100;5.056;2023-04-06T00:31:41;101715.09;;;10.13;43.10
49813;BME280;35706;52.100;5.056;2023-04-06T00:32:41;101708.75;;;10.29;42.75
49813;BME280;35706;52.100;5.056;2023-04-06T00:33:41;101701.88;;;10.15;43.16
49813;BME280;35706;52.100;5.056;2023-04-06T00:34:42;101716.22;;;9.98;43.40
49813;BME280;35706;52.100;5.056;2023-04-06T00:35:42;101709.03;;;10.13;43.32
49813;BME280;35706;52.100;5.056;2023-04-06T00:36:42;101707.91;;;10.04;43.31
49813;BME280;35706;52.100;5.056;2023-04-06T00:37:42;101709.50;;;10.18;42.94
49813;BME280;35706;52.100;5.056;2023-04-06T00:38:43;101703.38;;;10.06;43.15
49813;BME280;35706;52.100;5.056;2023-04-06T00:39:43;101706.53;;;9.98;42.97
49813;BME280;35706;52.100;5.056;2023-04-06T00:40:44;101709.63;;;9.92;43.54
49813;BME280;35706;52.100;5.056;2023-04-06T00:41:46;101706.69;;;9.97;43.27
49813;BME280;35706;52.100;5.056;2023-04-06T00:42:49;101709.50;;;9.94;43.71
49813;BME280;35706;52.100;5.056;2023-04-06T00:43:49;101703.69;;;9.77;43.66
49813;BME280;35706;52.100;5.056;2023-04-06T00:44:53;101704.50;;;9.91;43.34
49813;BME280;35706;52.100;5.056;2023-04-06T00:45:54;101704.88;;;9.97;43.64
49813;BME280;35706;52.100;5.056;2023-04-06T00:46:55;101701.78;;;9.79;43.78
49813;BME280;35706;52.100;5.056;2023-04-06T00:47:56;101699.88;;;9.82;44.20
49813;BME280;35706;52.100;5.056;2023-04-06T00:48:56;101703.25;;;9.84;43.63
49813;BME280;35706;52.100;5.056;2023-04-06T00:49:57;101699.78;;;9.83;43.72
49813;BME280;35706;52.100;5.056;2023-04-06T00:50:57;101698.84;;;9.84;43.56
49813;BME280;35706;52.100;5.056;2023-04-06T00:51:57;101696.13;;;9.73;43.95
49813;BME280;35706;52.100;5.056;2023-04-06T00:52:58;101695.25;;;9.85;44.03
49813;BME280;35706;52.100;5.056;2023-04-06T00:53:59;101700.47;;;9.74;44.22
49813;BME280;35706;52.100;5.056;2023-04-06T00:55:00;101696.41;;;9.57;44.11
49813;BME280;35706;52.100;5.056;2023-04-06T00:56:00;101691.59;;;9.51;44.36
49813;BME280;35706;52.100;5.056;2023-04-06T00:57:00;101694.41;;;9.48;44.52
49813;BME280;35706;52.100;5.056;2023-04-06T00:58:00;101697.41;;;9.80;43.94
49813;BME280;35706;52.100;5.056;2023-04-06T00:59:01;101696.00;;;9.87;43.80
49813;BME280;35706;52.100;5.056;2023-04-06T01:00:02;101693.69;;;9.83;43.84
49813;BME280;35706;52.100;5.056;2023-04-06T01:01:03;101695.00;;;9.64;43.90
49813;BME280;35706;52.100;5.056;2023-04-06T01:02:03;101687.53;;;9.71;44.15
49813;BME280;35706;52.100;5.056;2023-04-06T01:03:03;101682.69;;;9.77;44.00
49813;BME280;35706;52.100;5.056;2023-04-06T01:04:06;101676.59;;;9.77;43.99
49813;BME280;35706;52.100;5.056;2023-04-06T01:05:07;101680.94;;;9.65;44.09
49813;BME280;35706;52.100;5.056;2023-04-06T01:06:07;101682.19;;;9.72;43.80
49813;BME280;35706;52.100;5.056;2023-04-06T01:07:07;101682.72;;;9.65;44.32
49813;BME280;35706;52.100;5.056;2023-04-06T01:08:08;101684.13;;;9.57;44.43
49813;BME280;35706;52.100;5.056;2023-04-06T01:09:09;101675.03;;;9.74;44.09
49813;BME280;35706;52.100;5.056;2023-04-06T01:10:09;101670.00;;;9.71;44.03
49813;BME280;35706;52.100;5.056;2023-04-06T01:11:10;101675.91;;;9.62;43.99
49813;BME280;35706;52.100;5.056;2023-04-06T01:12:10;101674.78;;;9.77;43.96
49813;BME280;35706;52.100;5.056;2023-04-06T01:13:10;101675.97;;;9.73;43.81
49813;BME280;35706;52.100;5.056;2023-04-06T01:14:11;101669.09;;;9.60;44.07
49813;BME280;35706;52.100;5.056;2023-04-06T01:15:12;101677.06;;;9.58;43.96
49813;BME280;35706;52.100;5.056;2023-04-06T01:16:12;101670.75;;;9.61;43.84
49813;BME280;35706;52.100;5.056;2023-04-06T01:17:13;101670.00;;;9.71;43.67
49813;BME280;35706;52.100;5.056;2023-04-06T01:18:13;101671.03;;;9.45;43.95
49813;BME280;35706;52.100;5.056;2023-04-06T01:19:13;101666.41;;;9.48;44.17
49813;BME280;35706;52.100;5.056;2023-04-06T01:20:14;101656.31;;;9.55;43.98
49813;BME280;35706;52.100;5.056;2023-04-06T01:21:14;101664.28;;;9.53;43.50
49813;BME280;35706;52.100;5.056;2023-04-06T01:22:18;101659.63;;;9.70;43.56
49813;BME280;35706;52.100;5.056;2023-04-06T01:23:19;101663.94;;;9.58;43.61
49813;BME280;35706;52.100;5.056;2023-04-06T01:24:20;101671.84;;;9.45;43.98
49813;BME280;35706;52.100;5.056;2023-04-06T01:25:20;101669.47;;;9.42;44.13
49813;BME280;35706;52.100;5.056;2023-04-06T01:26:21;101658.31;;;9.51;43.86
49813;BME280;35706;52.100;5.056;2023-04-06T01:27:21;101658.41;;;9.50;43.62
49813;BME280;35706;52.100;5.056;2023-04-06T01:28:22;101658.00;;;9.43;43.77
49813;BME280;35706;52.100;5.056;2023-04-06T01:29:22;101661.13;;;9.61;43.71
49813;BME280;35706;52.100;5.056;2023-04-06T01:30:22;101657.94;;;9.69;43.38
49813;BME280;35706;52.100;5.056;2023-04-06T01:31:23;101656.31;;;9.55;43.60
49813;BME280;35706;52.100;5.056;2023-04-06T01:32:23;101655.69;;;9.51;43.41
49813;BME280;35706;52.100;5.056;2023-04-06T01:33:24;101652.50;;;9.59;43.77
49813;BME280;35706;52.100;5.056;2023-04-06T01:34:24;101649.38;;;9.54;43.66
49813;BME280;35706;52.100;5.056;2023-04-06T01:35:26;101648.13;;;9.47;43.60
49813;BME280;35706;52.100;5.056;2023-04-06T01:36:26;101644.97;;;9.42;43.78
49813;BME280;35706;52.100;5.056;2023-04-06T01:37:27;101648.44;;;9.55;43.79
49813;BME280;35706;52.100;5.056;2023-04-06T01:38:27;101645.28;;;9.50;43.53
49813;BME280;35706;52.100;5.056;2023-04-06T01:39:27;101643.81;;;9.46;43.95
49813;BME280;35706;52.100;5.056;2023-04-06T01:40:28;101646.69;;;9.30;44.05
49813;BME280;35706;52.100;5.056;2023-04-06T01:41:28;101640.63;;;9.29;43.96
49813;BME280;35706;52.100;5.056;2023-04-06T01:42:28;101643.34;;;9.28;44.19
49813;BME280;35706;52.100;5.056;2023-04-06T01:43:30;101643.31;;;9.41;44.11
49813;BME280;35706;52.100;5.056;2023-04-06T01:44:30;101638.09;;;9.28;44.36
49813;BME280;35706;52.100;5.056;2023-04-06T01:45:31;101637.88;;;9.31;44.10
49813;BME280;35706;52.100;5.056;2023-04-06T01:46:31;101639.75;;;9.29;44.13
49813;BME280;35706;52.100;5.056;2023-04-06T01:47:31;101645.88;;;9.29;44.15
49813;BME280;35706;52.100;5.056;2023-04-06T01:48:32;101640.63;;;9.29;44.34
49813;BME280;35706;52.100;5.056;2023-04-06T01:49:32;101634.94;;;9.23;44.48
49813;BME280;35706;52.100;5.056;2023-04-06T01:50:32;101642.53;;;9.14;44.43
49813;BME280;35706;52.100;5.056;2023-04-06T01:51:33;101628.97;;;9.21;44.54
49813;BME280;35706;52.100;5.056;2023-04-06T01:52:33;101641.59;;;9.03;45.09
49813;BME280;35706;52.100;5.056;2023-04-06T01:53:33;101628.72;;;9.00;45.21
49813;BME280;35706;52.100;5.056;2023-04-06T01:54:34;101633.53;;;8.93;45.35
49813;BME280;35706;52.100;5.056;2023-04-06T01:55:34;101636.34;;;9.03;45.30
49813;BME280;35706;52.100;5.056;2023-04-06T01:56:34;101635.50;;;9.15;45.06
49813;BME280;35706;52.100;5.056;2023-04-06T01:57:35;101628.50;;;9.03;45.20
49813;BME280;35706;52.100;5.056;2023-04-06T01:58:35;101633.41;;;9.07;45.20
49813;BME280;35706;52.100;5.056;2023-04-06T01:59:36;101633.75;;;8.90;45.48
49813;BME280;35706;52.100;5.056;2023-04-06T02:00:36;101627.22;;;9.08;45.31
49813;BME280;35706;52.100;5.056;2023-04-06T02:01:36;101629.13;;;9.06;45.22
49813;BME280;35706;52.100;5.056;2023-04-06T02:02:37;101629.19;;;9.17;45.07
49813;BME280;35706;52.100;5.056;2023-04-06T02:03:37;101621.56;;;9.14;45.18
49813;BME280;35706;52.100;5.056;2023-04-06T02:04:37;101624.59;;;9.21;45.20
49813;BME280;35706;52.100;5.056;2023-04-06T02:05:38;101615.88;;;9.08;45.39
49813;BME280;35706;52.100;5.056;2023-04-06T02:06:38;101626.91;;;9.13;45.26
49813;BME280;35706;52.100;5.056;2023-04-06T02:07:39;101622.91;;;9.20;45.21
49813;BME280;35706;52.100;5.056;2023-04-06T02:08:39;101608.41;;;9.27;44.76
49813;BME280;35706;52.100;5.056;2023-04-06T02:09:40;101618.50;;;9.08;45.28
49813;BME280;35706;52.100;5.056;2023-04-06T02:10:40;101611.94;;;9.02;45.63
49813;BME280;35706;52.100;5.056;2023-04-06T02:11:40;101615.06;;;9.07;45.75
49813;BME280;35706;52.100;5.056;2023-04-06T02:12:40;101611.50;;;9.08;45.72
49813;BME280;35706;52.100;5.056;2023-04-06T02:13:41;101612.53;;;8.93;46.02
49813;BME280;35706;52.100;5.056;2023-04-06T02:14:41;101604.47;;;8.96;46.06
49813;BME280;35706;52.100;5.056;2023-04-06T02:15:41;101601.91;;;9.20;45.47
49813;BME280;35706;52.100;5.056;2023-04-06T02:16:42;101605.53;;;9.06;45.73
49813;BME280;35706;52.100;5.056;2023-04-06T02:17:42;101609.16;;;9.04;45.94
49813;BME280;35706;52.100;5.056;2023-04-06T02:18:42;101600.69;;;9.13;45.68
49813;BME280;35706;52.100;5.056;2023-04-06T02:19:43;101596.78;;;9.19;45.37
49813;BME280;35706;52.100;5.056;2023-04-06T02:20:43;101592.97;;;9.23;45.04
49813;BME280;35706;52.100;5.056;2023-04-06T02:21:44;101594.66;;;9.24;44.92
49813;BME280;35706;52.100;5.056;2023-04-06T02:22:44;101593.72;;;9.25;44.51
49813;BME280;35706;52.100;5.056;2023-04-06T02:23:45;101594.03;;;9.20;44.88
49813;BME280;35706;52.100;5.056;2023-04-06T02:24:45;101597.91;;;9.27;44.77
49813;BME280;35706;52.100;5.056;2023-04-06T02:25:46;101585.09;;;9.23;44.74
49813;BME280;35706;52.100;5.056;2023-04-06T02:26:46;101594.81;;;9.09;44.96
49813;BME280;35706;52.100;5.056;2023-04-06T02:27:47;101591.31;;;9.22;44.98
49813;BME280;35706;52.100;5.056;2023-04-06T02:28:47;101597.09;;;9.14;44.81
49813;BME280;35706;52.100;5.056;2023-04-06T02:29:47;101584.53;;;9.06;45.07
49813;BME280;35706;52.100;5.056;2023-04-06T02:30:48;101597.03;;;9.03;45.11
49813;BME280;35706;52.100;5.056;2023-04-06T02:31:48;101590.41;;;8.97;45.32
49813;BME280;35706;52.100;5.056;2023-04-06T02:32:48;101588.19;;;9.04;45.08
49813;BME280;35706;52.100;5.056;2023-04-06T02:33:48;101583.56;;;9.07;45.15
49813;BME280;35706;52.100;5.056;2023-04-06T02:34:49;101588.34;;;8.89;45.33
49813;BME280;35706;52.100;5.056;2023-04-06T02:35:49;101591.16;;;8.99;45.31
49813;BME280;35706;52.100;5.056;2023-04-06T02:36:50;101597.97;;;9.02;45.14
49813;BME280;35706;52.100;5.056;2023-04-06T02:37:50;101589.06;;;8.91;45.29
49813;BME280;35706;52.100;5.056;2023-04-06T02:38:50;101589.50;;;8.85;45.55
49813;BME280;35706;52.100;5.056;2023-04-06T02:39:51;101583.63;;;8.82;45.95
49813;BME280;35706;52.100;5.056;2023-04-06T02:40:52;101582.69;;;8.95;45.72
49813;BME280;35706;52.100;5.056;2023-04-06T02:41:52;101583.50;;;8.96;45.74
49813;BME280;35706;52.100;5.056;2023-04-06T02:42:52;101589.47;;;8.98;45.82
49813;BME280;35706;52.100;5.056;2023-04-06T02:43:53;101589.06;;;8.91;45.79
49813;BME280;35706;52.100;5.056;2023-04-06T02:44:53;101583.63;;;8.82;46.04
49813;BME280;35706;52.100;5.056;2023-04-06T02:45:53;101585.00;;;8.87;46.11
49813;BME280;35706;52.100;5.056;2023-04-06T02:46:54;101586.34;;;8.80;46.17
49813;BME280;35706;52.100;5.056;2023-04-06T02:47:54;101575.84;;;8.80;46.00
49813;BME280;35706;52.100;5.056;2023-04-06T02:48:54;101582.91;;;8.67;46.31
49813;BME280;35706;52.100;5.056;2023-04-06T02:49:55;101581.53;;;8.74;46.38
49813;BME280;35706;52.100;5.056;2023-04-06T02:50:55;101577.63;;;8.92;46.07
49813;BME280;35706;52.100;5.056;2023-04-06T02:51:55;101570.16;;;8.99;45.85
49813;BME280;35706;52.100;5.056;2023-04-06T02:52:56;101571.75;;;8.89;46.16
49813;BME280;35706;52.100;5.056;2023-04-06T02:53:56;101568.63;;;8.84;46.22
49813;BME280;35706;52.100;5.056;2023-04-06T02:54:56;101569.13;;;8.89;46.06
49813;BME280;35706;52.100;5.056;2023-04-06T02:55:56;101564.41;;;8.94;46.04
49813;BME280;35706;52.100;5.056;2023-04-06T02:56:57;101567.25;;;8.91;45.78
49813;BME280;35706;52.100;5.056;2023-04-06T02:57:57;101565.97;;;8.96;45.98
49813;BME280;35706;52.100;5.056;2023-04-06T02:58:57;101567.47;;;8.88;46.16
49813;BME280;35706;52.100;5.056;2023-04-06T02:59:57;101560.53;;;9.00;46.17
49813;BME280;35706;52.100;5.056;2023-04-06T03:00:58;101565.56;;;8.90;46.21
49813;BME280;35706;52.100;5.056;2023-04-06T03:01:58;101560.66;;;8.85;46.30
49813;BME280;35706;52.100;5.056;2023-04-06T03:02:58;101563.28;;;8.85;46.31
49813;BME280;35706;52.100;5.056;2023-04-06T03:03:59;101563.81;;;8.77;46.77
49813;BME280;35706;52.100;5.056;2023-04-06T03:04:59;101559.97;;;8.58;47.01
49813;BME280;35706;52.100;5.056;2023-04-06T03:06:00;101555.84;;;8.66;46.99
49813;BME280;35706;52.100;5.056;2023-04-06T03:07:00;101559.09;;;8.70;46.55
49813;BME280;35706;52.100;5.056;2023-04-06T03:08:00;101559.72;;;8.73;46.92
49813;BME280;35706;52.100;5.056;2023-04-06T03:09:01;101556.38;;;8.59;47.23
49813;BME280;35706;52.100;5.056;2023-04-06T03:10:01;101554.28;;;8.64;47.14
49813;BME280;35706;52.100;5.056;2023-04-06T03:11:02;101557.75;;;8.64;47.27
49813;BME280;35706;52.100;5.056;2023-04-06T03:12:02;101556.28;;;8.73;47.12
49813;BME280;35706;52.100;5.056;2023-04-06T03:13:02;101555.22;;;8.63;47.28
49813;BME280;35706;52.100;5.056;2023-04-06T03:14:03;101552.63;;;8.50;47.70
49813;BME280;35706;52.100;5.056;2023-04-06T03:15:03;101551.38;;;8.55;47.55
49813;BME280;35706;52.100;5.056;2023-04-06T03:16:05;101554.31;;;8.51;47.89
49813;BME280;35706;52.100;5.056;2023-04-06T03:17:05;101555.75;;;8.42;48.71
49813;BME280;35706;52.100;5.056;2023-04-06T03:18:05;101545.47;;;8.52;47.95
49813;BME280;35706;52.100;5.056;2023-04-06T03:19:06;101548.94;;;8.52;47.76
49813;BME280;35706;52.100;5.056;2023-04-06T03:20:06;101554.50;;;8.48;48.02
49813;BME280;35706;52.100;5.056;2023-04-06T03:21:07;101557.66;;;8.66;47.75
49813;BME280;35706;52.100;5.056;2023-04-06T03:22:07;101543.28;;;8.59;47.93
49813;BME280;35706;52.100;5.056;2023-04-06T03:23:08;101550.09;;;8.61;47.96
49813;BME280;35706;52.100;5.056;2023-04-06T03:24:08;101550.94;;;8.74;47.71
49813;BME280;35706;52.100;5.056;2023-04-06T03:25:08;101545.28;;;8.68;47.71
49813;BME280;35706;52.100;5.056;2023-04-06T03:26:09;101553.13;;;8.68;48.10
49813;BME280;35706;52.100;5.056;2023-04-06T03:27:10;101543.28;;;8.46;48.31
49813;BME280;35706;52.100;5.056;2023-04-06T03:28:10;101545.56;;;8.63;47.93
49813;BME280;35706;52.100;5.056;2023-04-06T03:29:10;101544.63;;;8.39;48.45
49813;BME280;35706;52.100;5.056;2023-04-06T03:30:11;101544.44;;;8.42;48.42
49813;BME280;35706;52.100;5.056;2023-04-06T03:31:11;101536.78;;;8.51;48.35
49813;BME280;35706;52.100;5.056;2023-04-06T03:32:12;101543.06;;;8.36;48.57
49813;BME280;35706;52.100;5.056;2023-04-06T03:33:12;101534.16;;;8.51;48.61
49813;BME280;35706;52.100;5.056;2023-04-06T03:34:12;101542.22;;;8.61;48.15
49813;BME280;35706;52.100;5.056;2023-04-06T03:35:13;101540.97;;;8.41;48.66
49813;BME280;35706;52.100;5.056;2023-04-06T03:36:13;101543.34;;;8.31;49.23
49813;BME280;35706;52.100;5.056;2023-04-06T03:37:13;101538.25;;;8.30;49.17
49813;BME280;35706;52.100;5.056;2023-04-06T03:38:16;101547.97;;;8.15;49.71
49813;BME280;35706;52.100;5.056;2023-04-06T03:39:17;101540.00;;;8.29;49.50
49813;BME280;35706;52.100;5.056;2023-04-06T03:40:17;101531.88;;;8.47;48.83
49813;BME280;35706;52.100;5.056;2023-04-06T03:41:17;101533.75;;;8.45;49.07
49813;BME280;35706;52.100;5.056;2023-04-06T03:42:18;101538.69;;;8.49;49.05
49813;BME280;35706;52.100;5.056;2023-04-06T03:43:18;101535.84;;;8.52;48.79
49813;BME280;35706;52.100;5.056;2023-04-06T03:44:18;101532.88;;;8.57;48.94
49813;BME280;35706;52.100;5.056;2023-04-06T03:45:18;101531.41;;;8.40;49.39
49813;BME280;35706;52.100;5.056;2023-04-06T03:46:19;101531.97;;;8.45;49.41
49813;BME280;35706;52.100;5.056;2023-04-06T03:47:19;101532.72;;;8.47;49.37
49813;BME280;35706;52.100;5.056;2023-04-06T03:48:20;101531.25;;;8.43;49.52
49813;BME280;35706;52.100;5.056;2023-04-06T03:49:20;101531.56;;;8.51;49.42
49813;BME280;35706;52.100;5.056;2023-04-06T03:50:21;101531.25;;;8.43;49.73
49813;BME280;35706;52.100;5.056;2023-04-06T03:51:21;101534.03;;;8.40;49.96
49813;BME280;35706;52.100;5.056;2023-04-06T03:52:21;101527.13;;;8.39;49.75
49813;BME280;35706;52.100;5.056;2023-04-06T03:53:23;101533.34;;;8.51;49.83
49813;BME280;35706;52.100;5.056;2023-04-06T03:54:23;101528.09;;;8.51;49.90
49813;BME280;35706;52.100;5.056;2023-04-06T03:55:23;101524.03;;;8.47;49.94
49813;BME280;35706;52.100;5.056;2023-04-06T03:56:24;101525.97;;;8.69;49.38
49813;BME280;35706;52.100;5.056;2023-04-06T03:57:24;101529.84;;;8.50;49.76
49813;BME280;35706;52.100;5.056;2023-04-06T03:58:24;101523.66;;;8.39;49.89
49813;BME280;35706;52.100;5.056;2023-04-06T03:59:25;101524.72;;;8.36;50.22
49813;BME280;35706;52.100;5.056;2023-04-06T04:00:25;101526.00;;;8.43;50.40
49813;BME280;35706;52.100;5.056;2023-04-06T04:01:25;101524.22;;;8.44;50.47
49813;BME280;35706;52.100;5.056;2023-04-06T04:02:26;101520.81;;;8.29;50.58
49813;BME280;35706;52.100;5.056;2023-04-06T04:03:26;101520.41;;;8.35;50.43
49813;BME280;35706;52.100;5.056;2023-04-06T04:04:27;101519.25;;;8.39;50.73
49813;BME280;35706;52.100;5.056;2023-04-06T04:05:28;101523.75;;;8.37;50.75
49813;BME280;35706;52.100;5.056;2023-04-06T04:06:28;101516.97;;;8.34;50.88
49813;BME280;35706;52.100;5.056;2023-04-06T04:07:29;101524.41;;;8.28;51.02
49813;BME280;35706;52.100;5.056;2023-04-06T04:08:29;101520.34;;;8.49;50.42
49813;BME280;35706;52.100;5.056;2023-04-06T04:09:29;101522.31;;;8.46;50.53
49813;BME280;35706;52.100;5.056;2023-04-06T04:10:30;101523.25;;;8.32;51.09
49813;BME280;35706;52.100;5.056;2023-04-06T04:11:30;101520.41;;;8.35;51.04
49813;BME280;35706;52.100;5.056;2023-04-06T04:12:30;101522.56;;;8.43;50.74
49813;BME280;35706;52.100;5.056;2023-04-06T04:13:31;101513.63;;;8.58;50.19
49813;BME280;35706;52.100;5.056;2023-04-06T04:14:31;101524.09;;;8.58;50.36
49813;BME280;35706;52.100;5.056;2023-04-06T04:15:31;101515.28;;;8.46;50.53
49813;BME280;35706;52.100;5.056;2023-04-06T04:16:31;101515.00;;;8.51;50.52
49813;BME280;35706;52.100;5.056;2023-04-06T04:17:32;101519.81;;;8.44;50.63
49813;BME280;35706;52.100;5.056;2023-04-06T04:18:32;101519.06;;;8.55;50.30
49813;BME280;35706;52.100;5.056;2023-04-06T04:19:32;101519.19;;;8.53;50.44
49813;BME280;35706;52.100;5.056;2023-04-06T04:20:33;101518.88;;;8.45;50.70
49813;BME280;35706;52.100;5.056;2023-04-06T04:21:41;101513.81;;;8.42;51.03
49813;BME280;35706;52.100;5.056;2023-04-06T04:22:42;101522.53;;;8.30;51.16
49813;BME280;35706;52.100;5.056;2023-04-06T04:23:42;101518.00;;;8.32;51.21
49813;BME280;35706;52.100;5.056;2023-04-06T04:24:42;101517.78;;;8.35;51.08
49813;BME280;35706;52.100;5.056;2023-04-06T04:25:43;101515.91;;;8.37;51.09
49813;BME280;35706;52.100;5.056;2023-04-06T04:26:43;101518.44;;;8.26;51.45
49813;BME280;35706;52.100;5.056;2023-04-06T04:27:44;101516.84;;;8.23;51.54
49813;BME280;35706;52.100;5.056;2023-04-06T04:28:44;101509.94;;;8.22;51.49
49813;BME280;35706;52.100;5.056;2023-04-06T04:29:45;101511.22;;;8.42;51.23
49813;BME280;35706;52.100;5.056;2023-04-06T04:30:45;101522.53;;;8.30;51.39
49813;BME280;35706;52.100;5.056;2023-04-06T04:31:46;101514.44;;;8.33;51.26
49813;BME280;35706;52.100;5.056;2023-04-06T04:32:46;101512.22;;;8.40;51.04
49813;BME280;35706;52.100;5.056;2023-04-06T04:33:47;101511.31;;;8.53;50.52
49813;BME280;35706;52.100;5.056;2023-04-06T04:34:47;101510.69;;;8.50;50.70
49813;BME280;35706;52.100;5.056;2023-04-06T04:35:47;101502.09;;;8.48;50.57
49813;BME280;35706;52.100;5.056;2023-04-06T04:36:48;101506.84;;;8.43;50.64
49813;BME280;35706;52.100;5.056;2023-04-06T04:37:48;101511.94;;;8.44;50.84
49813;BME280;35706;52.100;5.056;2023-04-06T04:38:48;101509.63;;;8.52;50.46
49813;BME280;35706;52.100;5.056;2023-04-06T04:39:49;101503.78;;;8.49;50.60
49813;BME280;35706;52.100;5.056;2023-04-06T04:40:50;101508.28;;;8.60;50.49
49813;BME280;35706;52.100;5.056;2023-04-06T04:41:50;101500.00;;;8.53;50.25
49813;BME280;35706;52.100;5.056;2023-04-06T04:42:50;101505.03;;;8.43;50.59
49813;BME280;35706;52.100;5.056;2023-04-06T04:43:51;101510.38;;;8.54;50.32
49813;BME280;35706;52.100;5.056;2023-04-06T04:44:51;101508.88;;;8.38;50.92
49813;BME280;35706;52.100;5.056;2023-04-06T04:45:51;101513.19;;;8.26;51.19
49813;BME280;35706;52.100;5.056;2023-04-06T04:46:52;101507.31;;;8.35;50.74
49813;BME280;35706;52.100;5.056;2023-04-06T04:47:52;101504.63;;;8.49;50.58
49813;BME280;35706;52.100;5.056;2023-04-06T04:48:53;101507.88;;;8.53;50.49
49813;BME280;35706;52.100;5.056;2023-04-06T04:49:53;101508.59;;;8.42;50.56
49813;BME280;35706;52.100;5.056;2023-04-06T04:50:53;101506.94;;;8.41;50.58
49813;BME280;35706;52.100;5.056;2023-04-06T04:51:55;101509.84;;;8.36;50.82
49813;BME280;35706;52.100;5.056;2023-04-06T04:52:58;101499.78;;;8.56;50.73
49813;BME280;35706;52.100;5.056;2023-04-06T04:53:58;101501.69;;;8.54;50.68
49813;BME280;35706;52.100;5.056;2023-04-06T04:54:58;101499.16;;;8.52;50.76
49813;BME280;35706;52.100;5.056;2023-04-06T04:55:59;101508.28;;;8.47;50.85
49813;BME280;35706;52.100;5.056;2023-04-06T04:56:59;101501.03;;;8.50;50.89
49813;BME280;35706;52.100;5.056;2023-04-06T04:58:00;101500.41;;;8.60;50.51
49813;BME280;35706;52.100;5.056;2023-04-06T04:59:00;101501.91;;;8.51;50.83
49813;BME280;35706;52.100;5.056;2023-04-06T05:00:00;101503.16;;;8.45;51.13
49813;BME280;35706;52.100;5.056;2023-04-06T05:01:02;101500.19;;;8.37;51.31
49813;BME280;35706;52.100;5.056;2023-04-06T05:02:02;101499.47;;;8.35;51.52
49813;BME280;35706;52.100;5.056;2023-04-06T05:03:03;101499.16;;;8.52;50.86
49813;BME280;35706;52.100;5.056;2023-04-06T05:04:05;101506.69;;;8.44;51.20
49813;BME280;35706;52.100;5.056;2023-04-06T05:05:06;101500.53;;;8.45;50.96
49813;BME280;35706;52.100;5.056;2023-04-06T05:06:06;101504.22;;;8.43;50.88
49813;BME280;35706;52.100;5.056;2023-04-06T05:07:07;101500.53;;;8.45;51.15
49813;BME280;35706;52.100;5.056;2023-04-06T05:08:08;101503.63;;;8.38;51.16
49813;BME280;35706;52.100;5.056;2023-04-06T05:09:08;101502.31;;;8.32;51.24
49813;BME280;35706;52.100;5.056;2023-04-06T05:10:09;101504.69;;;8.35;51.36
49813;BME280;35706;52.100;5.056;2023-04-06T05:11:09;101508.59;;;8.42;51.11
49813;BME280;35706;52.100;5.056;2023-04-06T05:12:10;101503.31;;;8.16;51.42
49813;BME280;35706;52.100;5.056;2023-04-06T05:13:10;101498.31;;;8.13;51.99
49813;BME280;35706;52.100;5.056;2023-04-06T05:14:11;101503.72;;;8.10;51.93
49813;BME280;35706;52.100;5.056;2023-04-06T05:15:11;101500.50;;;8.07;52.17
49813;BME280;35706;52.100;5.056;2023-04-06T05:16:11;101502.06;;;8.09;52.05
49813;BME280;35706;52.100;5.056;2023-04-06T05:17:12;101499.03;;;8.15;51.93
49813;BME280;35706;52.100;5.056;2023-04-06T05:18:12;101496.63;;;8.38;51.44
49813;BME280;35706;52.100;5.056;2023-04-06T05:19:13;101499.97;;;8.40;51.21
49813;BME280;35706;52.100;5.056;2023-04-06T05:20:13;101501.03;;;8.38;51.18